createdAt,value
2022-11-13T00:01:59.878Z,24.7
2022-11-13T00:07:25.379Z,24.7
2022-11-13T00:12:47.807Z,24.6
2022-11-13T00:18:15.243Z,24.3
2022-11-13T00:23:53.316Z,24
2022-11-13T00:29:00.833Z,24.5
2022-11-13T00:35:35.327Z,24.6
2022-11-13T00:41:03.505Z,24.1
2022-11-13T00:46:25.460Z,24.1
2022-11-13T00:51:48.581Z,24.1
2022-11-13T00:56:55.948Z,24
2022-11-13T01:02:03.689Z,23.8
2022-11-13T01:07:26.744Z,23.6
2022-11-13T01:12:50.770Z,23.3
2022-11-13T01:17:57.137Z,23.1
2022-11-13T01:23:20.176Z,22.8
2022-11-13T01:28:27.302Z,22.6
2022-11-13T01:33:49.778Z,22.5
2022-11-13T01:39:28.601Z,22.4
2022-11-13T01:44:50.315Z,22.3
2022-11-13T01:50:12.775Z,22.3
2022-11-13T01:55:35.418Z,22.3
2022-11-13T02:01:13.736Z,22.4
2022-11-13T02:06:51.973Z,22.4
2022-11-13T02:12:30.501Z,22.4
2022-11-13T02:17:53.443Z,22.5
2022-11-13T02:23:31.194Z,22.5
2022-11-13T02:28:56.158Z,22.6
2022-11-13T02:34:23.312Z,22.6
2022-11-13T02:39:29.710Z,22.6
2022-11-13T02:44:51.683Z,22.6
2022-11-13T02:50:13.676Z,22.6
2022-11-13T02:55:57.057Z,22.6
2022-11-13T03:01:37.796Z,22.5
2022-11-13T03:08:01.888Z,22.5
2022-11-13T03:13:24.805Z,22.4
2022-11-13T03:18:47.034Z,22.4
2022-11-13T03:24:09.583Z,22.3
2022-11-13T03:29:37.229Z,22.3
2022-11-13T03:34:28.807Z,22.2
2022-11-13T03:39:56.599Z,22.1
2022-11-13T03:45:35.075Z,22.1
2022-11-13T03:51:18.042Z,21.9
2022-11-13T03:56:56.476Z,21.9
2022-11-13T04:02:40.781Z,21.8
2022-11-13T04:08:20.858Z,21.6
2022-11-13T04:13:43.130Z,21.6
2022-11-13T04:19:21.730Z,21.5
2022-11-13T04:24:58.430Z,21.4
2022-11-13T04:30:35.444Z,21.3
2022-11-13T04:36:14.077Z,21.2
2022-11-13T04:47:16.742Z,21.1
2022-11-13T04:52:55.511Z,20.9
2022-11-13T04:58:37.825Z,20.8
2022-11-13T05:04:15.523Z,20.7
2022-11-13T05:09:39.134Z,20.6
2022-11-13T05:15:03.194Z,20.6
2022-11-13T05:20:41.076Z,20.4
2022-11-13T05:26:19.926Z,20.4
2022-11-13T05:32:01.046Z,20.3
2022-11-13T05:37:41.451Z,20.2
2022-11-13T05:43:04.256Z,20.1
2022-11-13T05:48:44.012Z,20
2022-11-13T05:54:21.478Z,19.9
2022-11-13T05:59:59.857Z,19.8
2022-11-13T06:05:40.267Z,19.8
2022-11-13T06:11:17.642Z,19.6
2022-11-13T06:16:56.437Z,19.6
2022-11-13T06:22:36.317Z,19.5
2022-11-13T06:27:58.701Z,19.4
2022-11-13T06:33:37.361Z,19.4
2022-11-13T06:39:01.646Z,19.3
2022-11-13T06:44:24.247Z,19.3
2022-11-13T06:49:47.459Z,19.2
2022-11-13T06:55:16.069Z,19.1
2022-11-13T07:00:40.210Z,19.1
2022-11-13T07:06:03.655Z,19.1
2022-11-13T07:11:42.237Z,19
2022-11-13T07:17:38.363Z,18.9
2022-11-13T07:23:22.219Z,18.9
2022-11-13T07:28:45.741Z,18.9
2022-11-13T07:34:28.995Z,18.9
2022-11-13T07:39:36.512Z,18.9
2022-11-13T07:45:26.521Z,18.8
2022-11-13T07:50:56.822Z,18.8
2022-11-13T07:56:22.956Z,18.8
2022-11-13T08:01:47.144Z,18.8
2022-11-13T08:07:10.261Z,18.8
2022-11-13T08:12:19.920Z,18.8
2022-11-13T08:32:58.446Z,18.6
2022-11-13T08:38:39.354Z,18.6
2022-11-13T08:44:17.184Z,18.6
2022-11-13T08:50:00.490Z,18.6
2022-11-13T08:55:22.999Z,18.6
2022-11-13T09:01:06.313Z,18.6
2022-11-13T09:06:44.582Z,18.6
2022-11-13T09:12:27.583Z,18.6
2022-11-13T09:50:46.002Z,18.8
2022-11-13T09:56:13.834Z,18.8
2022-11-13T10:01:52.388Z,18.8
2022-11-13T10:07:51.273Z,18.8
2022-11-13T10:13:29.775Z,18.8
2022-11-13T10:18:52.818Z,18.8
2022-11-13T10:24:48.628Z,18.8
2022-11-13T10:30:18.750Z,18.8
2022-11-13T10:35:41.475Z,18.8
2022-11-13T10:41:26.997Z,18.8
2022-11-13T10:46:54.435Z,18.8
2022-11-13T10:53:03.630Z,18.8
2022-11-13T10:58:13.216Z,18.8
2022-11-13T11:03:52.946Z,18.8
2022-11-13T11:09:51.123Z,18.8
2022-11-13T11:15:34.864Z,18.8
2022-11-13T11:21:12.989Z,18.8
2022-11-13T11:26:53.467Z,18.8
2022-11-13T11:32:31.441Z,18.8
2022-11-13T11:38:09.229Z,18.8
2022-11-13T11:43:31.896Z,18.8
2022-11-13T11:49:02.225Z,18.8
2022-11-13T11:54:39.610Z,18.8
2022-11-13T12:00:17.723Z,18.8
2022-11-13T12:05:56.353Z,18.8
2022-11-13T12:11:19.439Z,18.8
2022-11-13T12:16:41.866Z,18.8
2022-11-13T12:22:20.889Z,18.8
2022-11-13T12:27:58.779Z,18.8
2022-11-13T12:33:40.212Z,18.8
2022-11-13T12:39:23.248Z,18.8
2022-11-13T12:45:03.866Z,18.8
2022-11-13T12:50:31.680Z,18.8
2022-11-13T13:01:38.614Z,18.8
2022-11-13T13:07:16.908Z,18.8
2022-11-13T13:12:55.498Z,18.8
2022-11-13T13:28:22.826Z,18.8
2022-11-13T13:44:14.963Z,18.8
2022-11-13T13:55:08.184Z,18.8
2022-11-13T14:06:21.677Z,18.8
2022-11-13T14:12:00.729Z,18.8
2022-11-13T14:17:38.589Z,18.8
2022-11-13T14:23:16.804Z,18.8
2022-11-13T14:28:39.375Z,18.8
2022-11-13T14:34:21.562Z,18.8
2022-11-13T14:40:00.094Z,18.8
2022-11-13T14:45:39.649Z,18.8
2022-11-13T14:51:18.412Z,18.8
2022-11-13T14:57:12.029Z,18.8
2022-11-13T15:12:25.553Z,18.8
2022-11-13T15:43:53.011Z,85
2022-11-13T15:49:21.551Z,29.7
2022-11-13T15:55:19.855Z,34.5
2022-11-13T16:00:48.028Z,36.3
2022-11-13T16:06:34.853Z,37.4
2022-11-13T16:11:42.351Z,37.8
2022-11-13T16:17:27.693Z,38.3
2022-11-13T16:22:54.025Z,38.1
2022-11-13T16:28:37.557Z,37.9
2022-11-13T16:34:28.574Z,85
2022-11-13T16:39:49.939Z,39.3
2022-11-13T16:45:34.103Z,39.5
2022-11-13T16:51:14.159Z,39.6
2022-11-13T16:56:51.902Z,38.7
2022-11-13T17:02:22.607Z,38.6
2022-11-13T17:08:05.326Z,38.3
2022-11-13T17:14:08.837Z,38.2
2022-11-13T17:19:31.916Z,37.9
2022-11-13T17:25:11.216Z,37.8
2022-11-13T17:30:49.469Z,36.6
2022-11-13T17:36:11.765Z,36.3
2022-11-13T17:41:52.339Z,35.3
2022-11-13T17:47:05.081Z,35.1
2022-11-13T17:52:34.601Z,37.3
2022-11-13T17:58:16.945Z,37.9
2022-11-13T18:03:38.979Z,37.1
2022-11-13T18:09:06.644Z,37.2
2022-11-13T18:14:30.053Z,38.1
2022-11-13T18:20:12.485Z,38.5
2022-11-13T18:26:11.622Z,39.5
2022-11-13T18:31:51.053Z,39.5
2022-11-13T18:37:28.965Z,39.1
2022-11-13T18:43:09.760Z,38.6
2022-11-13T18:48:49.789Z,37.1
2022-11-13T18:54:11.742Z,37.6
2022-11-13T18:59:50.188Z,36.5
2022-11-13T19:06:01.635Z,38.3
2022-11-13T19:11:43.732Z,38.5
2022-11-13T19:17:06.960Z,38.9
2022-11-13T19:22:50.830Z,38.4
2022-11-13T19:28:30.556Z,37.4
2022-11-13T19:33:52.829Z,35.9
2022-11-13T19:39:34.054Z,35.8
2022-11-13T19:45:12.283Z,34.4
2022-11-13T19:50:35.053Z,33.8
2022-11-13T19:56:13.890Z,33.1
2022-11-13T20:01:39.893Z,32.3
2022-11-13T20:07:03.489Z,31.5
2022-11-13T20:12:26.912Z,30.9
2022-11-13T20:17:48.206Z,30.5
2022-11-13T20:23:27.530Z,30.1
2022-11-13T20:28:54.669Z,29.6
2022-11-13T20:34:32.095Z,29.2
2022-11-13T20:40:15.501Z,28.9
2022-11-13T20:45:54.275Z,32.1
2022-11-13T20:51:32.346Z,37.3
2022-11-13T20:56:58.558Z,38.7
2022-11-13T21:02:42.609Z,38.7
2022-11-13T21:08:24.043Z,38.1
2022-11-13T21:14:02.369Z,37.6
2022-11-13T21:19:40.913Z,37.4
2022-11-13T21:25:18.656Z,36.3
2022-11-13T21:31:03.044Z,36.8
2022-11-13T21:36:46.852Z,35.1
2022-11-13T21:42:24.830Z,35.4
2022-11-13T21:48:02.845Z,34.1
2022-11-13T21:53:41.303Z,33.3
2022-11-13T21:59:19.794Z,32.8
2022-11-13T22:05:00.299Z,32
2022-11-13T22:10:41.482Z,31.1
2022-11-13T22:16:18.412Z,30.5
2022-11-13T22:22:00.510Z,29.9
2022-11-13T22:27:39.290Z,29.5
2022-11-13T22:33:16.590Z,29
2022-11-13T22:38:54.429Z,28.6
2022-11-13T22:44:51.563Z,28.4
2022-11-13T22:50:45.215Z,28.1
2022-11-13T22:56:23.491Z,27.8
2022-11-13T23:01:46.566Z,27.5
2022-11-13T23:07:15.054Z,27.3
2022-11-13T23:12:54.427Z,26.9
2022-11-13T23:18:05.797Z,26.8
2022-11-13T23:23:45.715Z,26.6
2022-11-13T23:29:08.097Z,26.4
2022-11-13T23:35:16.228Z,26.3
2022-11-13T23:40:53.662Z,26
2022-11-13T23:47:12.952Z,25.7
2022-11-13T23:52:51.272Z,25.3
2022-11-13T23:58:29.177Z,25
